createdAt,value
2018-08-28T00:00:28.678Z,60359.27
2018-08-28T00:02:56.879Z,60346.06
2018-08-28T00:05:25.068Z,60355.21
2018-08-28T00:07:53.271Z,60362.32
2018-08-28T00:10:21.463Z,60365.37
2018-08-28T00:12:49.755Z,60360.29
2018-08-28T00:15:17.962Z,60396.87
2018-08-28T00:17:46.159Z,60361.30
2018-08-28T00:20:14.356Z,60373.50
2018-08-28T00:22:42.573Z,60375.53
2018-08-28T00:25:10.775Z,60379.59
2018-08-28T00:27:38.990Z,60370.45
2018-08-28T00:30:07.191Z,60360.29
2018-08-28T00:32:35.380Z,60374.52
2018-08-28T00:35:03.614Z,60368.42
2018-08-28T00:37:31.814Z,60373.50
2018-08-28T00:40:00.004Z,60350.12
2018-08-28T00:42:28.183Z,60383.66
2018-08-28T00:44:56.379Z,60392.80
2018-08-28T00:47:24.583Z,60374.52
2018-08-28T00:49:52.786Z,60377.56
2018-08-28T00:52:21.045Z,60410.08
2018-08-28T00:54:49.211Z,60393.82
2018-08-28T00:57:17.399Z,60387.72
2018-08-28T00:59:45.627Z,60403.98
2018-08-28T01:02:13.830Z,60394.84
2018-08-28T01:04:42.029Z,60375.53
2018-08-28T01:07:10.260Z,60402.97
2018-08-28T01:09:38.463Z,60406.02
2018-08-28T01:12:06.708Z,60397.89
2018-08-28T01:14:34.958Z,60390.77
2018-08-28T01:17:03.105Z,60376.55
2018-08-28T01:19:31.307Z,60383.66
2018-08-28T01:21:59.558Z,60401.95
2018-08-28T01:24:27.734Z,60406.02
2018-08-28T01:26:55.960Z,60395.86
2018-08-28T01:29:24.152Z,60414.14
2018-08-28T01:31:52.340Z,60380.61
2018-08-28T01:34:20.535Z,60408.05
2018-08-28T01:36:48.748Z,60407.03
2018-08-28T01:39:16.942Z,60412.11
2018-08-28T01:41:45.114Z,60413.13
2018-08-28T01:44:13.290Z,60413.13
2018-08-28T01:46:41.476Z,60409.07
2018-08-28T01:49:09.661Z,60413.13
2018-08-28T01:51:37.844Z,60401.95
2018-08-28T01:54:06.075Z,60422.27
2018-08-28T01:56:34.256Z,60409.07
2018-08-28T01:59:02.440Z,60401.95
2018-08-28T02:01:30.656Z,60401.95
2018-08-28T02:03:58.838Z,60395.86
2018-08-28T02:06:27.015Z,60419.23
2018-08-28T02:08:55.200Z,60392.80
2018-08-28T02:11:23.387Z,60398.90
2018-08-28T02:13:51.575Z,60406.02
2018-08-28T02:16:19.763Z,60411.10
2018-08-28T02:18:47.965Z,60397.89
2018-08-28T02:21:16.165Z,60397.89
2018-08-28T02:23:44.342Z,60397.89
2018-08-28T02:26:12.563Z,60433.45
2018-08-28T02:28:40.763Z,60396.87
2018-08-28T02:31:08.936Z,60392.80
2018-08-28T02:33:37.347Z,60422.27
2018-08-28T02:36:05.444Z,60402.97
2018-08-28T02:38:33.635Z,60436.50
2018-08-28T02:41:01.839Z,60410.08
2018-08-28T02:43:30.029Z,60423.29
2018-08-28T02:45:58.221Z,60418.21
2018-08-28T02:48:26.409Z,60380.61
2018-08-28T02:50:54.596Z,60418.21
2018-08-28T02:53:22.775Z,60446.66
2018-08-28T02:55:50.960Z,60431.42
2018-08-28T02:58:19.147Z,60394.84
2018-08-28T03:00:47.345Z,60440.57
2018-08-28T03:03:15.512Z,60421.26
2018-08-28T03:05:43.721Z,60403.98
2018-08-28T03:08:11.911Z,60432.44
2018-08-28T03:10:40.081Z,60441.58
2018-08-28T03:13:08.260Z,60446.66
2018-08-28T03:15:36.719Z,60411.10
2018-08-28T03:18:04.828Z,60437.52
2018-08-28T03:20:33.004Z,60401.95
2018-08-28T03:23:01.189Z,60446.66
2018-08-28T03:25:29.359Z,60414.14
2018-08-28T03:27:57.564Z,60431.42
2018-08-28T03:30:25.764Z,60398.90
2018-08-28T03:32:53.945Z,60435.48
2018-08-28T03:35:22.179Z,60435.48
2018-08-28T03:37:50.373Z,60428.37
2018-08-28T03:40:18.562Z,60445.65
2018-08-28T03:42:46.756Z,60437.52
2018-08-28T03:45:14.939Z,60463.94
2018-08-28T03:47:43.156Z,60394.84
2018-08-28T03:50:11.367Z,60429.39
2018-08-28T03:52:39.558Z,60406.02
2018-08-28T03:55:07.753Z,60449.71
2018-08-28T03:57:35.932Z,60438.53
2018-08-28T04:00:04.160Z,60425.32
2018-08-28T04:02:32.330Z,60427.36
2018-08-28T04:05:00.543Z,60429.39
2018-08-28T04:07:28.730Z,60425.32
2018-08-28T04:09:56.915Z,60421.26
2018-08-28T04:12:25.171Z,60419.23
2018-08-28T04:14:53.384Z,60439.55
2018-08-28T04:17:21.567Z,60423.29
2018-08-28T04:19:49.776Z,60408.05
2018-08-28T04:22:18.005Z,60453.78
2018-08-28T04:24:50.443Z,60435.48
2018-08-28T04:27:18.635Z,60430.40
2018-08-28T04:29:46.832Z,60435.48
2018-08-28T04:32:15.015Z,60406.02
2018-08-28T04:34:43.209Z,60405.00
2018-08-28T04:37:11.408Z,60455.81
2018-08-28T04:39:39.619Z,60428.37
2018-08-28T04:42:07.792Z,60441.58
2018-08-28T04:44:35.967Z,60445.65
2018-08-28T04:47:04.164Z,60436.50
2018-08-28T04:49:32.406Z,60416.18
2018-08-28T04:52:00.606Z,60428.37
2018-08-28T04:54:28.788Z,60443.61
2018-08-28T04:56:56.997Z,60451.75
2018-08-28T04:59:25.176Z,60430.40
2018-08-28T05:01:53.379Z,60405.00
2018-08-28T05:04:21.551Z,60437.52
2018-08-28T05:06:49.735Z,60415.16
2018-08-28T05:09:17.910Z,60426.34
2018-08-28T05:11:46.128Z,60429.39
2018-08-28T05:14:14.288Z,60425.32
2018-08-28T05:16:42.472Z,60420.24
2018-08-28T05:19:10.694Z,60425.32
2018-08-28T05:21:38.859Z,60441.58
2018-08-28T05:24:07.056Z,60422.27
2018-08-28T05:26:35.248Z,60436.50
2018-08-28T05:29:03.452Z,60422.27
2018-08-28T05:31:31.730Z,60433.45
2018-08-28T05:33:59.933Z,60443.61
2018-08-28T05:36:28.156Z,60442.60
2018-08-28T05:38:56.373Z,60423.29
2018-08-28T05:41:24.736Z,60441.58
2018-08-28T05:43:52.934Z,60430.40
2018-08-28T05:46:21.112Z,60428.37
2018-08-28T05:48:49.300Z,60428.37
2018-08-28T05:51:17.479Z,60434.47
2018-08-28T05:53:45.664Z,60431.42
2018-08-28T05:56:14.057Z,60440.57
2018-08-28T05:58:42.140Z,60425.32
2018-08-28T06:01:10.340Z,60440.57
2018-08-28T06:03:38.512Z,60431.42
2018-08-28T06:06:06.746Z,60422.27
2018-08-28T06:08:34.959Z,60414.14
2018-08-28T06:11:03.156Z,60420.24
2018-08-28T06:13:31.479Z,60435.48
2018-08-28T06:15:59.660Z,60432.44
2018-08-28T06:18:27.870Z,60445.65
2018-08-28T06:20:56.073Z,60457.84
2018-08-28T06:23:24.257Z,60423.29
2018-08-28T06:25:52.433Z,60453.78
2018-08-28T06:28:20.626Z,60410.08
2018-08-28T06:30:48.819Z,60450.73
2018-08-28T06:33:17.149Z,60433.45
2018-08-28T06:35:45.356Z,60397.89
2018-08-28T06:38:13.627Z,60426.34
2018-08-28T06:40:41.832Z,60439.55
2018-08-28T06:43:10.264Z,60438.53
2018-08-28T06:45:38.453Z,60436.50
2018-08-28T06:48:06.726Z,60408.05
2018-08-28T06:50:34.957Z,60411.10
2018-08-28T06:53:03.169Z,60411.10
2018-08-28T06:55:31.357Z,60424.31
2018-08-28T06:57:59.655Z,60415.16
2018-08-28T07:00:27.879Z,60424.31
2018-08-28T07:02:56.063Z,60422.27
2018-08-28T07:05:24.349Z,60419.23
2018-08-28T07:07:52.668Z,60413.13
2018-08-28T07:10:20.977Z,60383.66
2018-08-28T07:12:49.096Z,60416.18
2018-08-28T07:15:17.300Z,60395.86
2018-08-28T07:17:45.531Z,60410.08
2018-08-28T07:20:13.761Z,60400.93
2018-08-28T07:22:42.076Z,60410.08
2018-08-28T07:25:10.357Z,60393.82
2018-08-28T07:27:38.908Z,60397.89
2018-08-28T07:30:07.127Z,60375.53
2018-08-28T07:32:35.565Z,60400.93
2018-08-28T07:35:03.780Z,60403.98
2018-08-28T07:37:32.044Z,60403.98
2018-08-28T07:40:00.192Z,60399.92
2018-08-28T07:42:28.395Z,60395.86
2018-08-28T07:44:56.583Z,60398.90
2018-08-28T07:47:24.823Z,60398.90
2018-08-28T07:49:53.028Z,60392.80
2018-08-28T07:52:21.223Z,60376.55
2018-08-28T07:54:49.464Z,60379.59
2018-08-28T07:57:17.676Z,60390.77
2018-08-28T07:59:45.868Z,60383.66
2018-08-28T08:02:14.336Z,60377.56
2018-08-28T08:04:42.568Z,60388.74
2018-08-28T08:07:11.145Z,60380.61
2018-08-28T08:09:39.340Z,60393.82
2018-08-28T08:12:07.548Z,60374.52
2018-08-28T08:14:35.752Z,60380.61
2018-08-28T08:17:03.983Z,60382.64
2018-08-28T08:19:32.265Z,60364.35
2018-08-28T08:22:00.666Z,60377.56
2018-08-28T08:24:28.923Z,60385.69
2018-08-28T08:26:57.121Z,60387.72
2018-08-28T08:29:25.470Z,60373.50
2018-08-28T08:31:53.709Z,60354.19
2018-08-28T08:34:21.981Z,60356.22
2018-08-28T08:36:50.197Z,60381.63
2018-08-28T08:39:18.493Z,60351.14
2018-08-28T08:41:46.693Z,60372.48
2018-08-28T08:44:14.903Z,60368.42
2018-08-28T08:46:43.112Z,60352.16
2018-08-28T08:49:11.455Z,60344.03
2018-08-28T08:51:39.656Z,60365.37
2018-08-28T08:54:07.841Z,60339.96
2018-08-28T08:56:36.129Z,60362.32
2018-08-28T08:59:04.332Z,60356.22
2018-08-28T09:01:32.531Z,60332.85
2018-08-28T09:04:00.741Z,60332.85
2018-08-28T09:06:28.987Z,60337.93
2018-08-28T09:08:57.169Z,60353.18
2018-08-28T09:11:25.416Z,60309.48
2018-08-28T09:13:53.620Z,60325.74
2018-08-28T09:16:22.000Z,60328.79
2018-08-28T09:18:50.176Z,60298.30
2018-08-28T09:21:18.373Z,60306.43
2018-08-28T09:23:46.576Z,60318.62
2018-08-28T09:26:14.773Z,60309.48
2018-08-28T09:28:43.008Z,60307.45
2018-08-28T09:31:11.436Z,60280.01
2018-08-28T09:33:39.591Z,60301.35
2018-08-28T09:36:07.791Z,60273.91
2018-08-28T09:38:36.048Z,60300.34
2018-08-28T09:41:04.198Z,60297.29
2018-08-28T09:43:32.372Z,60285.09
2018-08-28T09:46:00.576Z,60267.82
2018-08-28T09:48:28.819Z,60265.79
2018-08-28T09:50:57.061Z,60259.69
2018-08-28T09:53:25.228Z,60271.88
2018-08-28T09:55:53.425Z,60269.85
2018-08-28T09:58:21.638Z,60254.61
2018-08-28T10:00:55.048Z,60259.69
2018-08-28T10:03:23.252Z,60246.48
2018-08-28T10:05:51.935Z,60267.82
2018-08-28T10:08:20.131Z,60276.96
2018-08-28T10:10:48.435Z,60255.63
2018-08-28T10:13:16.620Z,60251.56
2018-08-28T10:15:44.887Z,60239.36
2018-08-28T10:18:13.080Z,60241.40
2018-08-28T10:20:41.282Z,60229.20
2018-08-28T10:23:09.528Z,60239.36
2018-08-28T10:25:37.729Z,60240.38
2018-08-28T10:28:06.147Z,60254.61
2018-08-28T10:30:34.340Z,60246.48
2018-08-28T10:33:02.801Z,60277.98
2018-08-28T10:35:30.996Z,60244.45
2018-08-28T10:37:59.289Z,60250.54
2018-08-28T10:40:27.419Z,60243.43
2018-08-28T10:42:55.623Z,60231.24
2018-08-28T10:45:23.823Z,60250.54
2018-08-28T10:47:52.018Z,60254.61
2018-08-28T10:50:20.259Z,60243.43
2018-08-28T10:52:48.572Z,60269.85
2018-08-28T10:55:16.691Z,60255.63
2018-08-28T10:57:44.889Z,60263.75
2018-08-28T11:00:13.096Z,60237.33
2018-08-28T11:02:41.287Z,60238.35
2018-08-28T11:05:09.471Z,60241.40
2018-08-28T11:07:37.663Z,60251.56
2018-08-28T11:10:05.843Z,60236.32
2018-08-28T11:12:34.027Z,60254.61
2018-08-28T11:15:02.269Z,60267.82
2018-08-28T11:17:30.459Z,60249.53
2018-08-28T11:19:58.655Z,60229.20
2018-08-28T11:22:27.001Z,60242.41
2018-08-28T11:24:55.143Z,60225.14
2018-08-28T11:27:23.332Z,60225.14
2018-08-28T11:29:51.554Z,60210.91
2018-08-28T11:32:19.772Z,60221.07
2018-08-28T11:34:47.972Z,60212.95
2018-08-28T11:37:16.183Z,60194.66
2018-08-28T11:39:44.369Z,60194.66
2018-08-28T11:42:12.556Z,60185.51
2018-08-28T11:44:40.734Z,60180.43
2018-08-28T11:47:08.945Z,60207.86
2018-08-28T11:49:37.120Z,60193.64
2018-08-28T11:52:05.333Z,60223.11
2018-08-28T11:54:33.523Z,60235.30
2018-08-28T11:57:02.580Z,60229.20
2018-08-28T11:59:30.800Z,60244.45
2018-08-28T12:01:59.024Z,60225.14
2018-08-28T12:04:27.216Z,60217.01
2018-08-28T12:06:55.458Z,60238.35
2018-08-28T12:09:23.663Z,60232.25
2018-08-28T12:11:51.852Z,60236.32
2018-08-28T12:14:20.065Z,60245.46
2018-08-28T12:16:48.253Z,60221.07
2018-08-28T12:19:16.456Z,60222.09
2018-08-28T12:21:44.679Z,60210.91
2018-08-28T12:24:13.050Z,60194.66
2018-08-28T12:26:41.253Z,60209.90
2018-08-28T12:29:09.400Z,60213.96
2018-08-28T12:31:37.596Z,60220.06
2018-08-28T12:34:05.948Z,60227.17
2018-08-28T12:36:34.175Z,60204.82
2018-08-28T12:39:02.411Z,60215.99
2018-08-28T12:41:31.252Z,60201.77
2018-08-28T12:43:59.516Z,60202.79
2018-08-28T12:46:27.965Z,60194.66
2018-08-28T12:48:56.289Z,60202.79
2018-08-28T12:51:24.702Z,60208.88
2018-08-28T12:53:52.772Z,60195.67
2018-08-28T12:56:20.981Z,60197.70
2018-08-28T12:58:49.196Z,60208.88
2018-08-28T13:01:17.588Z,60199.74
2018-08-28T13:03:46.019Z,60200.75
2018-08-28T13:06:14.432Z,60194.66
2018-08-28T13:08:42.753Z,60210.91
2018-08-28T13:11:10.967Z,60197.70
2018-08-28T13:13:39.268Z,60204.82
2018-08-28T13:16:07.501Z,60185.51
2018-08-28T13:18:35.775Z,60196.69
2018-08-28T13:21:03.992Z,60188.56
2018-08-28T13:23:32.221Z,60200.75
2018-08-28T13:26:00.607Z,60192.62
2018-08-28T13:28:28.676Z,60195.67
2018-08-28T13:30:56.868Z,60185.51
2018-08-28T13:33:25.039Z,60212.95
2018-08-28T13:35:53.241Z,60206.85
2018-08-28T13:38:21.519Z,60199.74
2018-08-28T13:40:49.996Z,60190.59
2018-08-28T13:43:18.147Z,60206.85
2018-08-28T13:45:46.392Z,60194.66
2018-08-28T13:48:14.744Z,60195.67
2018-08-28T13:50:43.147Z,60214.98
2018-08-28T13:53:11.397Z,60197.70
2018-08-28T13:55:39.606Z,60206.85
2018-08-28T13:58:07.787Z,60204.82
2018-08-28T14:00:36.012Z,60187.54
2018-08-28T14:03:04.220Z,60188.56
2018-08-28T14:05:32.425Z,60196.69
2018-08-28T14:08:00.611Z,60192.62
2018-08-28T14:10:28.815Z,60196.69
2018-08-28T14:12:56.999Z,60204.82
2018-08-28T14:15:25.229Z,60202.79
2018-08-28T14:17:53.421Z,60186.52
2018-08-28T14:20:21.637Z,60208.88
2018-08-28T14:22:49.888Z,60213.96
2018-08-28T14:25:18.132Z,60187.54
2018-08-28T14:27:46.733Z,60198.72
2018-08-28T14:30:14.912Z,60225.14
2018-08-28T14:32:43.119Z,60205.83
2018-08-28T14:35:11.340Z,60197.70
2018-08-28T14:37:39.561Z,60220.06
2018-08-28T14:40:07.768Z,60205.83
2018-08-28T14:42:36.180Z,60200.75
2018-08-28T14:45:04.456Z,60227.17
2018-08-28T14:47:32.686Z,60226.16
2018-08-28T14:50:01.033Z,60226.16
2018-08-28T14:52:29.119Z,60215.99
2018-08-28T14:54:57.332Z,60203.80
2018-08-28T14:57:25.557Z,60230.22
2018-08-28T14:59:53.776Z,60207.86
2018-08-28T15:02:22.015Z,60219.04
2018-08-28T15:04:50.245Z,60226.16
2018-08-28T15:07:18.506Z,60221.07
2018-08-28T15:09:46.716Z,60232.25
2018-08-28T15:12:14.920Z,60232.25
2018-08-28T15:14:43.111Z,60221.07
2018-08-28T15:17:11.552Z,60223.11
2018-08-28T15:19:39.747Z,60213.96
2018-08-28T15:22:07.951Z,60228.19
2018-08-28T15:24:36.153Z,60243.43
2018-08-28T15:27:04.367Z,60226.16
2018-08-28T15:29:32.572Z,60214.98
2018-08-28T15:32:00.768Z,60213.96
2018-08-28T15:34:29.006Z,60208.88
2018-08-28T15:36:57.175Z,60229.20
2018-08-28T15:39:25.351Z,60219.04
2018-08-28T15:41:53.551Z,60221.07
2018-08-28T15:44:21.733Z,60225.14
2018-08-28T15:46:50.116Z,60195.67
2018-08-28T15:49:18.556Z,60224.12
2018-08-28T15:51:46.873Z,60224.12
2018-08-28T15:54:16.083Z,60229.20
2018-08-28T15:56:44.420Z,60221.07
2018-08-28T15:59:13.428Z,60217.01
2018-08-28T16:01:41.616Z,60215.99
2018-08-28T16:04:13.972Z,60222.09
2018-08-28T16:06:42.219Z,60245.46
2018-08-28T16:09:10.460Z,60219.04
2018-08-28T16:11:38.719Z,60235.30
2018-08-28T16:14:06.982Z,60231.24
2018-08-28T16:16:35.295Z,60227.17
2018-08-28T16:19:03.580Z,60222.09
2018-08-28T16:21:35.936Z,60234.29
2018-08-28T16:24:04.120Z,60247.49
2018-08-28T16:26:32.306Z,60224.12
2018-08-28T16:29:00.504Z,60223.11
2018-08-28T16:31:28.726Z,60234.29
2018-08-28T16:33:56.926Z,60231.24
2018-08-28T16:36:25.212Z,60235.30
2018-08-28T16:38:53.441Z,60219.04
2018-08-28T16:41:21.754Z,60242.41
2018-08-28T16:43:49.930Z,60264.77
2018-08-28T16:46:18.230Z,60245.46
2018-08-28T16:48:46.422Z,60237.33
2018-08-28T16:51:14.603Z,60241.40
2018-08-28T16:53:42.800Z,60239.36
2018-08-28T16:56:11.004Z,60243.43
2018-08-28T16:58:39.211Z,60260.71
2018-08-28T17:01:07.515Z,60240.38
2018-08-28T17:03:35.648Z,60243.43
2018-08-28T17:06:03.853Z,60233.27
2018-08-28T17:08:32.101Z,60244.45
2018-08-28T17:11:00.436Z,60248.51
2018-08-28T17:13:28.663Z,60256.64
2018-08-28T17:15:56.863Z,60261.72
2018-08-28T17:18:25.052Z,60252.57
2018-08-28T17:20:53.245Z,60243.43
2018-08-28T17:23:21.432Z,60245.46
2018-08-28T17:25:49.641Z,60245.46
2018-08-28T17:28:17.866Z,60252.57
2018-08-28T17:30:46.058Z,60251.56
2018-08-28T17:33:14.281Z,60241.40
2018-08-28T17:35:42.456Z,60260.71
2018-08-28T17:38:10.860Z,60268.83
2018-08-28T17:40:39.091Z,60250.54
2018-08-28T17:43:07.630Z,60249.53
2018-08-28T17:45:35.879Z,60287.12
2018-08-28T17:48:04.081Z,60249.53
2018-08-28T17:50:32.271Z,60269.85
2018-08-28T17:53:00.691Z,60261.72
2018-08-28T17:55:29.951Z,60282.04
2018-08-28T17:57:58.740Z,60284.07
2018-08-28T18:00:27.575Z,60290.17
2018-08-28T18:02:55.946Z,60274.93
2018-08-28T18:05:24.275Z,60294.24
2018-08-28T18:07:52.576Z,60281.03
2018-08-28T18:10:21.820Z,60297.29
2018-08-28T18:12:50.835Z,60275.95
2018-08-28T18:15:19.045Z,60285.09
2018-08-28T18:17:47.292Z,60283.06
2018-08-28T18:20:15.823Z,60305.41
2018-08-28T18:22:44.152Z,60283.06
2018-08-28T18:25:12.360Z,60301.35
2018-08-28T18:27:40.619Z,60292.21
2018-08-28T18:30:09.569Z,60284.07
2018-08-28T18:32:38.031Z,60306.43
2018-08-28T18:35:06.347Z,60294.24
2018-08-28T18:37:34.634Z,60293.22
2018-08-28T18:40:03.440Z,60304.40
2018-08-28T18:42:32.209Z,60274.93
2018-08-28T18:45:00.373Z,60290.17
2018-08-28T18:47:28.722Z,60285.09
2018-08-28T18:49:57.045Z,60301.35
2018-08-28T18:52:25.405Z,60328.79
2018-08-28T18:54:56.000Z,60326.75
2018-08-28T18:57:24.288Z,60281.03
2018-08-28T18:59:52.495Z,60323.71
2018-08-28T19:02:20.768Z,60307.45
2018-08-28T19:04:49.092Z,60322.69
2018-08-28T19:07:18.580Z,60295.25
2018-08-28T19:09:47.504Z,60294.24
2018-08-28T19:12:15.760Z,60295.25
2018-08-28T19:14:45.595Z,60302.37
2018-08-28T19:17:14.330Z,60299.32
2018-08-28T19:19:42.515Z,60322.69
2018-08-28T19:22:10.899Z,60320.66
2018-08-28T19:24:39.831Z,60320.66
2018-08-28T19:27:09.426Z,60334.88
2018-08-28T19:29:38.449Z,60344.03
2018-08-28T19:32:06.726Z,60323.71
2018-08-28T19:34:35.017Z,60336.91
2018-08-28T19:37:03.320Z,60351.14
2018-08-28T19:39:33.227Z,60325.74
2018-08-28T19:42:02.057Z,60319.64
2018-08-28T19:44:30.284Z,60325.74
2018-08-28T19:46:59.353Z,60321.67
2018-08-28T19:49:28.442Z,60333.87
2018-08-28T19:51:57.652Z,60338.95
2018-08-28T19:54:26.687Z,60350.12
2018-08-28T19:56:54.923Z,60322.69
2018-08-28T19:59:23.792Z,60333.87
2018-08-28T20:01:53.059Z,60326.75
2018-08-28T20:04:21.762Z,60353.18
2018-08-28T20:06:50.546Z,60311.51
2018-08-28T20:09:19.504Z,60337.93
2018-08-28T20:11:48.524Z,60300.34
2018-08-28T20:14:17.003Z,60336.91
2018-08-28T20:16:45.311Z,60321.67
2018-08-28T20:19:14.623Z,60353.18
2018-08-28T20:21:42.807Z,60336.91
2018-08-28T20:24:10.987Z,60343.01
2018-08-28T20:26:39.169Z,60348.09
2018-08-28T20:29:07.373Z,60332.85
2018-08-28T20:31:35.575Z,60346.06
2018-08-28T20:34:03.797Z,60332.85
2018-08-28T20:36:31.980Z,60342.00
2018-08-28T20:39:00.168Z,60343.01
2018-08-28T20:41:28.357Z,60345.04
2018-08-28T20:43:56.535Z,60329.80
2018-08-28T20:46:24.699Z,60338.95
2018-08-28T20:48:52.896Z,60345.04
2018-08-28T20:51:21.083Z,60337.93
2018-08-28T20:53:49.296Z,60358.25
2018-08-28T20:56:17.467Z,60319.64
2018-08-28T20:58:45.648Z,60351.14
2018-08-28T21:01:13.844Z,60352.16
2018-08-28T21:03:42.359Z,60336.91
2018-08-28T21:06:10.629Z,60359.27
2018-08-28T21:08:38.825Z,60345.04
2018-08-28T21:11:06.990Z,60348.09
2018-08-28T21:13:35.322Z,60326.75
2018-08-28T21:16:03.602Z,60359.27
2018-08-28T21:18:31.775Z,60359.27
2018-08-28T21:20:59.971Z,60363.34
2018-08-28T21:23:28.160Z,60350.12
2018-08-28T21:25:56.343Z,60344.03
2018-08-28T21:28:25.605Z,60340.98
2018-08-28T21:30:53.807Z,60352.16
2018-08-28T21:33:22.008Z,60355.21
2018-08-28T21:35:50.223Z,60366.39
2018-08-28T21:38:18.375Z,60334.88
2018-08-28T21:40:46.556Z,60344.03
2018-08-28T21:43:14.747Z,60337.93
2018-08-28T21:45:42.939Z,60345.04
2018-08-28T21:48:11.136Z,60344.03
2018-08-28T21:50:39.301Z,60345.04
2018-08-28T21:53:07.496Z,60345.04
2018-08-28T21:55:35.686Z,60361.30
2018-08-28T21:58:03.875Z,60346.06
2018-08-28T22:00:32.350Z,60359.27
2018-08-28T22:03:00.569Z,60347.08
2018-08-28T22:05:29.591Z,60379.59
2018-08-28T22:07:59.850Z,60362.32
2018-08-28T22:10:28.576Z,60362.32
2018-08-28T22:12:56.778Z,60347.08
2018-08-28T22:15:24.996Z,60379.59
2018-08-28T22:17:53.465Z,60370.45
2018-08-28T22:20:21.671Z,60365.37
2018-08-28T22:22:50.224Z,60362.32
2018-08-28T22:25:18.429Z,60363.34
2018-08-28T22:27:46.603Z,60377.56
2018-08-28T22:30:14.792Z,60347.08
2018-08-28T22:32:43.024Z,60366.39
2018-08-28T22:35:11.251Z,60368.42
2018-08-28T22:37:39.435Z,60373.50
2018-08-28T22:40:09.980Z,60369.43
2018-08-28T22:42:38.212Z,60353.18
2018-08-28T22:45:06.487Z,60349.11
2018-08-28T22:47:34.680Z,60360.29
2018-08-28T22:50:02.934Z,60367.40
2018-08-28T22:52:31.362Z,60369.43
2018-08-28T22:54:59.560Z,60357.24
2018-08-28T22:57:27.753Z,60363.34
2018-08-28T22:59:55.961Z,60365.37
2018-08-28T23:02:24.159Z,60363.34
2018-08-28T23:04:52.362Z,60362.32
2018-08-28T23:07:20.567Z,60345.04
2018-08-28T23:09:48.758Z,60357.24
2018-08-28T23:12:16.987Z,60370.45
2018-08-28T23:14:45.164Z,60372.48
2018-08-28T23:17:13.360Z,60367.40
2018-08-28T23:19:41.552Z,60357.24
2018-08-28T23:22:09.740Z,60365.37
2018-08-28T23:24:37.924Z,60379.59
2018-08-28T23:27:06.142Z,60372.48
2018-08-28T23:29:34.365Z,60383.66
2018-08-28T23:32:02.588Z,60350.12
2018-08-28T23:34:30.792Z,60377.56
2018-08-28T23:36:59.031Z,60373.50
2018-08-28T23:39:27.248Z,60367.40
2018-08-28T23:41:55.443Z,60361.30
2018-08-28T23:44:23.648Z,60357.24
2018-08-28T23:46:51.843Z,60380.61
2018-08-28T23:49:20.040Z,60363.34
2018-08-28T23:51:48.260Z,60363.34
2018-08-28T23:54:16.448Z,60377.56
2018-08-28T23:56:44.655Z,60375.53
2018-08-28T23:59:12.867Z,60365.37
